طرابلس, ليبيا

05:22 AM EET on سبتهبر 28, 2016 (GMT +0200)
Mitiga | | Change Station

Elev 36 ft 32.89 °N, 13.28 °E | Updated 1 hour ago

Thunderstorm
عاصفة رعدية
68 °F
Feels Like 68 °F
N
4
ريح متغير ريح from SSW

هذا اليوم
High -- | Low -- °F
--% Chance of Precip.
Yesterday
High -- | Low -- °F
Precip. -- في
الضغط 30.12 في
وضوح الرؤية 4.3 أميال
سحابات Few 1800 ft
غيوم متفرقة 2500 ft
غائم كلياً 16000 ft
نقطة الندى 63 °F
الرطوبة 83%
Rainfall 0.00 في
عمق الثلج Not available.
6:59 AM 6:55 PM
الهلال الأخير, 8% visible
METAR HLLM 280150Z 21003KT 7000 TS FEW018CB SCT025 BKN160 20/17 Q1020
الضغط 30.12 في
وضوح الرؤية 4.3 أميال
سحابات Few 1800 ft
غيوم متفرقة 2500 ft
غائم كلياً 16000 ft
نقطة الندى 63 °F
الرطوبة 83%
Rainfall 0.00 في
عمق الثلج Not available.
6:59 AM 6:55 PM
الهلال الأخير, 8% visible
METAR HLLM 280150Z 21003KT 7000 TS FEW018CB SCT025 BKN160 20/17 Q1020

10-Day Weather Forecast

No radar image for this location.
×

Almanac

علم الفلك

Sep. 28, 2016 Rise Set
Actual Time
Civil Twilight
Nautical Twilight
Astronomical Twilight
قمر
Length Of Visible Light
طول الیوم
Tomorrow will be .
, % of the Moon is Illuminated

Today's Extremes

Country Highs Country Lows

Community

WunderPhotos

Upload Photos

1,942,201 photos uploaded!

WunderBlog® & News

Nearby

جودة الهواء

  جودة الهواء AQ Index Pollutant
Not available.

عمق الثلج

Station Depth Elevation

Earthquake Activity

City Distance Mag. Time & Date
Minimum magnitude displayed is 2.5.

Coastal Water Temperatures

مكان درجات الحرارة

Stations

Nearby Weather Stations

Station Location الحرارة رياح باردة نقطة الندى الرطوبة ريح Precip. Elev تحديث Type